Hlavní strana
METAR-TAF:

METAR-TAF

Letiště :

Letiště Řím-Fiumicino

Řím-Fiumicino, Itálie

zeměpisná šířka: 41-48N, zeměpisná délka: 012-14E, výška: 2 m

Aktuální stav počasí

Zpráva byla vytvořena před 18 minutami, v 10:20 UTC
Západní vítr 12 kt
Teplota 29°C
Vlhkost vzduchu 52%
Tlak 1015 hPa
Viditelnost 10 km a více
Žádná oblačnost pod 1500 m, nevyskytují se cumulonimby.

METAR: LIRF 181020Z 27012KT CAVOK 29/18 Q1015 NOSIG

Čas: 12:38 (10:38 UTC)

Předpověď počasí

Zpráva byla vytvořena před 5 hodinami a 38 minutami, v 05:00 UTC
Předpověď platná od 18 v 06 UTC do 19 v 12 UTC
vítr z různých směrů 5 kt
Viditelnost 10 km a více
Žádná oblačnost pod 1500 m, nevyskytují se cumulonimby.
Změna
od 18 v 09 UTC do 18 v 11 UTC
Západní vítr 13 kt
Změna
od 18 v 16 UTC do 18 v 18 UTC
vítr z různých směrů 5 kt
Změna
od 19 v 09 UTC do 19 v 11 UTC
Západní vítr 12 kt

TAF: LIRF 180500Z 1806/1912 VRB05KT CAVOK BECMG 1809/1811 26013KT BECMG 1816/1818 VRB05KT BECMG 1909/1911 26012KT

Stav a předpovědi počasí z více než 4 000 letišť (zprávy METAR a TAF).

Červené a žluté tečky na mapě představují dostupné meteorologické stanice.

Když kurzor umístíte na tečku, zobrazí se název stanice.

Pak kliknutím zobrazíte stav a předpověď počasí.

Chcete-li změnit mapu, kliknutím na zelené tlačítko se znaménkem +mapu přiblížíte, kliknutím na zelené tlačítko se znaménkem – mapu oddálíte a kliknutím na zelené šipky přejdete na sousední mapy.


METAR-TAF: